Seto — 3FZB4 — position and weather

sailwx.info

Track history (hours):
 
Tides and Currents Weather Stations Pressure Air Temp Water Temp Dewpoint Dewpoint Depression Visibility Wind Speed Wind Dir Waves Ship Positions

Seto

Last reported at 2018-Feb-08 13:00 UTC. Time now 2018-Feb-23 00:47 UTC.
Position N 28°39' W 117°35'.
Warning: this ship's position is 14 days out of date.

Length 273 m; draft 17 m.

Type: Cargo ship. MMSI: 354951000.

Date/timePositionNaut miles runAvg speedWind from/ knotsBaromVisibWave heightAir tempDewpointWater temp
2018-Feb-08 13:00N 28°39' W 117°35'1313.2
2018-Feb-08 12:00N 28°37' W 117°20'  
2018-Feb-03 18:10N 29°56' W 120°04'214.7
2018-Feb-03 18:01N 29°56' W 120°07'714.4
2018-Feb-03 17:30N 29°58' W 120°15'914.6
2018-Feb-03 16:53N 29°60' W 120°25'1314.3
2018-Feb-03 16:00N 30°02' W 120°39'3214.6
2018-Feb-03 13:50N 30°09' W 121°15'515.2
2018-Feb-03 13:30N 30°10' W 121°21'8014.5
2018-Feb-03 08:01N 30°44' W 122°45'014.0
2018-Feb-03 07:59N 30°44' W 122°45'5614.0
2018-Feb-03 04:00N 31°10' W 123°42'2914.3
2018-Feb-03 02:00N 31°20' W 124°14'1714.3
2018-Feb-03 00:46N 31°26' W 124°33'414.6
2018-Feb-03 00:30N 31°28' W 124°37'714.3
2018-Feb-02 23:59N 31°30' W 124°45'3314.6
2018-Feb-02 21:42N 31°43' W 125°21'314.3
2018-Feb-02 21:30N 31°44' W 125°25'714.4
2018-Feb-02 21:00N 31°47' W 125°32'714.4
2018-Feb-02 20:29N 31°50' W 125°41'1214.4
2018-Feb-02 19:37N 31°54' W 125°54'17914.4
2018-Feb-02 07:13N 32°59' W 129°11'314.3
2018-Feb-02 06:59N 33°01' W 129°15'5014.1
2018-Feb-02 03:27N 33°19' W 130°10'614.2
2018-Feb-02 03:00N 33°21' W 130°17'714.3
2018-Feb-02 02:30N 33°24' W 130°25'714.0
2018-Feb-02 02:00N 33°26' W 130°33'914.5
2018-Feb-02 01:24N 33°29' W 130°43'714.6
2018-Feb-02 00:54N 33°32' W 130°51'1113.9
2018-Feb-02 00:08N 33°36' W 131°03'214.1
2018-Feb-02 00:00N 33°36' W 131°05'714.5
2018-Feb-01 23:30N 33°39' W 131°13'1214.4
2018-Feb-01 22:41N 33°43' W 131°27'1014.6
2018-Feb-01 22:00N 33°47' W 131°38'714.6
2018-Feb-01 21:30N 33°49' W 131°46'3514.6
2018-Feb-01 19:07N 34°02' W 132°25'213.9
2018-Feb-01 18:59N 34°03' W 132°27'713.7
2018-Feb-01 18:30N 34°06' W 132°34'2213.6
2018-Feb-01 16:53N 34°14' W 132°59'613.5
2018-Feb-01 16:27N 34°16' W 133°06'1013.7
2018-Feb-01 15:45N 34°20' W 133°16'3713.7
2018-Feb-01 13:01N 34°33' W 133°59'014.5
2018-Feb-01 13:00N 34°33' W 133°59'913.8
2018-Feb-01 12:23N 34°36' W 134°09'4713.7
2018-Feb-01 08:59N 34°53' W 135°02'  
Track history (hours):
 
Tides and Currents Weather Stations Pressure Air Temp Water Temp Dewpoint Dewpoint Depression Visibility Wind Speed Wind Dir Waves Ship Positions

Seto

Last reported at 2018-Feb-08 13:00 UTC. Time now 2018-Feb-23 00:47 UTC.
Position N 28°39' W 117°35'.
Warning: this ship's position is 14 days out of date.

Length 273 m; draft 17 m.

Type: Cargo ship. MMSI: 354951000.

Date/timePositionNaut miles runAvg speedWind from/ knotsBaromVisibWave heightAir tempDewpointWater temp
2018-Feb-08 13:00N 28°39' W 117°35'1313.2
2018-Feb-08 12:00N 28°37' W 117°20'  
2018-Feb-03 18:10N 29°56' W 120°04'214.7
2018-Feb-03 18:01N 29°56' W 120°07'714.4
2018-Feb-03 17:30N 29°58' W 120°15'914.6
2018-Feb-03 16:53N 29°60' W 120°25'1314.3
2018-Feb-03 16:00N 30°02' W 120°39'3214.6
2018-Feb-03 13:50N 30°09' W 121°15'515.2
2018-Feb-03 13:30N 30°10' W 121°21'8014.5
2018-Feb-03 08:01N 30°44' W 122°45'014.0
2018-Feb-03 07:59N 30°44' W 122°45'5614.0
2018-Feb-03 04:00N 31°10' W 123°42'2914.3
2018-Feb-03 02:00N 31°20' W 124°14'1714.3
2018-Feb-03 00:46N 31°26' W 124°33'414.6
2018-Feb-03 00:30N 31°28' W 124°37'714.3
2018-Feb-02 23:59N 31°30' W 124°45'3314.6
2018-Feb-02 21:42N 31°43' W 125°21'314.3
2018-Feb-02 21:30N 31°44' W 125°25'714.4
2018-Feb-02 21:00N 31°47' W 125°32'714.4
2018-Feb-02 20:29N 31°50' W 125°41'1214.4
2018-Feb-02 19:37N 31°54' W 125°54'17914.4
2018-Feb-02 07:13N 32°59' W 129°11'314.3
2018-Feb-02 06:59N 33°01' W 129°15'5014.1
2018-Feb-02 03:27N 33°19' W 130°10'614.2
2018-Feb-02 03:00N 33°21' W 130°17'714.3
2018-Feb-02 02:30N 33°24' W 130°25'714.0
2018-Feb-02 02:00N 33°26' W 130°33'914.5
2018-Feb-02 01:24N 33°29' W 130°43'714.6
2018-Feb-02 00:54N 33°32' W 130°51'1113.9
2018-Feb-02 00:08N 33°36' W 131°03'214.1
2018-Feb-02 00:00N 33°36' W 131°05'714.5
2018-Feb-01 23:30N 33°39' W 131°13'1214.4
2018-Feb-01 22:41N 33°43' W 131°27'1014.6
2018-Feb-01 22:00N 33°47' W 131°38'714.6
2018-Feb-01 21:30N 33°49' W 131°46'3514.6
2018-Feb-01 19:07N 34°02' W 132°25'213.9
2018-Feb-01 18:59N 34°03' W 132°27'713.7
2018-Feb-01 18:30N 34°06' W 132°34'2213.6
2018-Feb-01 16:53N 34°14' W 132°59'613.5
2018-Feb-01 16:27N 34°16' W 133°06'1013.7
2018-Feb-01 15:45N 34°20' W 133°16'3713.7
2018-Feb-01 13:01N 34°33' W 133°59'014.5
2018-Feb-01 13:00N 34°33' W 133°59'913.8
2018-Feb-01 12:23N 34°36' W 134°09'4713.7
2018-Feb-01 08:59N 34°53' W 135°02'  

Dump ship's entire track history